sensor_id;sensor_type;location;lat;lon;timestamp;pressure;altitude;pressure_sealevel;temperature;humidity
18755;BME280;35061;47.664;9.166;2023-07-30T00:01:44;101329.85;;;18.33;98.34
18755;BME280;35061;47.664;9.166;2023-07-30T00:04:12;101323.84;;;18.31;98.48
18755;BME280;35061;47.664;9.166;2023-07-30T00:06:40;101332.77;;;18.33;98.42
18755;BME280;35061;47.664;9.166;2023-07-30T00:09:08;101331.20;;;18.32;98.21
18755;BME280;35061;47.664;9.166;2023-07-30T00:11:36;101322.79;;;18.28;98.03
18755;BME280;35061;47.664;9.166;2023-07-30T00:14:04;101324.91;;;18.27;98.13
18755;BME280;35061;47.664;9.166;2023-07-30T00:16:33;101332.02;;;18.26;97.92
18755;BME280;35061;47.664;9.166;2023-07-30T00:19:01;101343.91;;;18.23;97.55
18755;BME280;35061;47.664;9.166;2023-07-30T00:21:28;101342.58;;;18.24;97.69
18755;BME280;35061;47.664;9.166;2023-07-30T00:23:56;101343.36;;;18.24;97.48
18755;BME280;35061;47.664;9.166;2023-07-30T00:26:25;101344.66;;;18.23;97.38
18755;BME280;35061;47.664;9.166;2023-07-30T00:28:54;101337.54;;;18.24;97.22
18755;BME280;35061;47.664;9.166;2023-07-30T00:31:22;101350.72;;;18.25;97.06
18755;BME280;35061;47.664;9.166;2023-07-30T00:33:50;101344.15;;;18.25;96.91
18755;BME280;35061;47.664;9.166;2023-07-30T00:36:17;101349.41;;;18.26;97.02
18755;BME280;35061;47.664;9.166;2023-07-30T00:38:46;101350.69;;;18.31;96.98
18755;BME280;35061;47.664;9.166;2023-07-30T00:41:14;101353.07;;;18.33;97.25
18755;BME280;35061;47.664;9.166;2023-07-30T00:43:42;101361.25;;;18.34;97.24
18755;BME280;35061;47.664;9.166;2023-07-30T00:46:10;101359.91;;;18.35;97.23
18755;BME280;35061;47.664;9.166;2023-07-30T00:48:38;101374.39;;;18.35;97.29
18755;BME280;35061;47.664;9.166;2023-07-30T00:51:07;101364.12;;;18.34;97.41
18755;BME280;35061;47.664;9.166;2023-07-30T00:53:35;101374.39;;;18.35;97.55
18755;BME280;35061;47.664;9.166;2023-07-30T00:56:05;101366.22;;;18.34;97.53
18755;BME280;35061;47.664;9.166;2023-07-30T00:58:33;101375.73;;;18.34;97.58
18755;BME280;35061;47.664;9.166;2023-07-30T01:01:01;101374.16;;;18.33;97.74
18755;BME280;35061;47.664;9.166;2023-07-30T01:03:30;101363.34;;;18.34;98.15
18755;BME280;35061;47.664;9.166;2023-07-30T01:05:58;101378.61;;;18.34;98.10
18755;BME280;35061;47.664;9.166;2023-07-30T01:08:26;101377.83;;;18.34;98.25
18755;BME280;35061;47.664;9.166;2023-07-30T01:10:55;101369.36;;;18.36;98.31
18755;BME280;35061;47.664;9.166;2023-07-30T01:13:24;101359.91;;;18.35;98.24
18755;BME280;35061;47.664;9.166;2023-07-30T01:15:52;101363.05;;;18.37;98.35
18755;BME280;35061;47.664;9.166;2023-07-30T01:18:21;101363.30;;;18.39;98.00
18755;BME280;35061;47.664;9.166;2023-07-30T01:20:52;101376.75;;;18.37;97.98
18755;BME280;35061;47.664;9.166;2023-07-30T01:23:20;101368.31;;;18.39;97.97
18755;BME280;35061;47.664;9.166;2023-07-30T01:25:50;101374.13;;;18.39;97.97
18755;BME280;35061;47.664;9.166;2023-07-30T01:28:21;101374.13;;;18.39;97.88
18755;BME280;35061;47.664;9.166;2023-07-30T01:30:50;101365.43;;;18.39;97.79
18755;BME280;35061;47.664;9.166;2023-07-30T01:33:19;101375.44;;;18.38;97.81
18755;BME280;35061;47.664;9.166;2023-07-30T01:35:47;101384.14;;;18.38;98.17
18755;BME280;35061;47.664;9.166;2023-07-30T01:38:15;101387.05;;;18.38;98.14
18755;BME280;35061;47.664;9.166;2023-07-30T01:40:44;101390.22;;;18.34;97.93
18755;BME280;35061;47.664;9.166;2023-07-30T01:43:12;101384.95;;;18.33;98.03
18755;BME280;35061;47.664;9.166;2023-07-30T01:45:40;101383.38;;;18.32;98.17
18755;BME280;35061;47.664;9.166;2023-07-30T01:48:08;101364.95;;;18.29;98.21
18755;BME280;35061;47.664;9.166;2023-07-30T01:50:36;101360.73;;;18.30;98.56
18755;BME280;35061;47.664;9.166;2023-07-30T01:53:04;101366.25;;;18.28;98.60
18755;BME280;35061;47.664;9.166;2023-07-30T01:55:32;101359.68;;;18.27;98.66
18755;BME280;35061;47.664;9.166;2023-07-30T01:58:00;101372.59;;;18.26;98.63
18755;BME280;35061;47.664;9.166;2023-07-30T02:00:28;101368.12;;;18.25;98.81
18755;BME280;35061;47.664;9.166;2023-07-30T02:02:56;101358.63;;;18.25;98.89
18755;BME280;35061;47.664;9.166;2023-07-30T02:05:24;101348.88;;;18.22;98.86
18755;BME280;35061;47.664;9.166;2023-07-30T02:07:52;101351.57;;;18.20;98.98
18755;BME280;35061;47.664;9.166;2023-07-30T02:10:20;101352.88;;;18.19;98.87
18755;BME280;35061;47.664;9.166;2023-07-30T02:12:48;101353.92;;;18.16;98.73
18755;BME280;35061;47.664;9.166;2023-07-30T02:15:16;101339.47;;;18.10;98.62
18755;BME280;35061;47.664;9.166;2023-07-30T02:17:43;101350.29;;;18.10;98.68
18755;BME280;35061;47.664;9.166;2023-07-30T02:20:12;101341.10;;;18.06;98.48
18755;BME280;35061;47.664;9.166;2023-07-30T02:22:39;101340.84;;;18.04;98.39
18755;BME280;35061;47.664;9.166;2023-07-30T02:25:07;101344.77;;;18.00;98.13
18755;BME280;35061;47.664;9.166;2023-07-30T02:27:36;101336.88;;;18.01;98.14
18755;BME280;35061;47.664;9.166;2023-07-30T02:30:04;101331.62;;;17.99;98.02
18755;BME280;35061;47.664;9.166;2023-07-30T02:32:32;101331.62;;;17.99;97.95
18755;BME280;35061;47.664;9.166;2023-07-30T02:35:00;101333.71;;;17.99;97.90
18755;BME280;35061;47.664;9.166;2023-07-30T02:37:28;101335.84;;;17.98;97.75
18755;BME280;35061;47.664;9.166;2023-07-30T02:39:56;101333.71;;;17.99;97.68
18755;BME280;35061;47.664;9.166;2023-07-30T02:42:24;101338.16;;;18.00;97.68
18755;BME280;35061;47.664;9.166;2023-07-30T02:44:52;101342.41;;;17.99;97.63
18755;BME280;35061;47.664;9.166;2023-07-30T02:47:20;101345.29;;;17.99;97.60
18755;BME280;35061;47.664;9.166;2023-07-30T02:49:48;101340.29;;;17.99;97.65
18755;BME280;35061;47.664;9.166;2023-07-30T02:52:16;101341.07;;;18.00;97.60
18755;BME280;35061;47.664;9.166;2023-07-30T02:54:44;101348.98;;;17.99;97.61
18755;BME280;35061;47.664;9.166;2023-07-30T02:57:12;101351.90;;;17.99;97.64
18755;BME280;35061;47.664;9.166;2023-07-30T02:59:40;101351.08;;;17.99;97.61
18755;BME280;35061;47.664;9.166;2023-07-30T03:02:08;101339.24;;;17.97;97.60
18755;BME280;35061;47.664;9.166;2023-07-30T03:04:36;101339.24;;;17.97;97.62
18755;BME280;35061;47.664;9.166;2023-07-30T03:07:05;101363.24;;;17.97;97.60
18755;BME280;35061;47.664;9.166;2023-07-30T03:09:33;101356.15;;;17.93;97.75
18755;BME280;35061;47.664;9.166;2023-07-30T03:12:01;101359.02;;;17.93;97.69
18755;BME280;35061;47.664;9.166;2023-07-30T03:14:29;101358.24;;;17.92;97.76
18755;BME280;35061;47.664;9.166;2023-07-30T03:16:57;101353.01;;;17.91;97.83
18755;BME280;35061;47.664;9.166;2023-07-30T03:19:25;101367.98;;;17.89;97.88
18755;BME280;35061;47.664;9.166;2023-07-30T03:21:53;101364.62;;;17.85;98.21
18755;BME280;35061;47.664;9.166;2023-07-30T03:24:21;101366.71;;;17.84;98.39
18755;BME280;35061;47.664;9.166;2023-07-30T03:26:49;101362.23;;;17.83;98.38
18755;BME280;35061;47.664;9.166;2023-07-30T03:29:17;101367.23;;;17.83;98.37
18755;BME280;35061;47.664;9.166;2023-07-30T03:31:45;101367.79;;;17.81;98.38
18755;BME280;35061;47.664;9.166;2023-07-30T03:34:13;101362.49;;;17.80;98.42
18755;BME280;35061;47.664;9.166;2023-07-30T03:36:41;101365.92;;;17.78;98.51
18755;BME280;35061;47.664;9.166;2023-07-30T03:39:09;101365.92;;;17.78;98.54
18755;BME280;35061;47.664;9.166;2023-07-30T03:41:37;101367.23;;;17.77;98.58
18755;BME280;35061;47.664;9.166;2023-07-30T03:44:05;101370.93;;;17.78;98.76
18755;BME280;35061;47.664;9.166;2023-07-30T03:46:33;101365.14;;;17.78;98.91
18755;BME280;35061;47.664;9.166;2023-07-30T03:49:01;101360.69;;;17.77;98.93
18755;BME280;35061;47.664;9.166;2023-07-30T03:51:29;101362.78;;;17.76;99.15
18755;BME280;35061;47.664;9.166;2023-07-30T03:53:57;101368.84;;;17.78;99.28
18755;BME280;35061;47.664;9.166;2023-07-30T03:56:25;101372.53;;;17.79;99.47
18755;BME280;35061;47.664;9.166;2023-07-30T03:58:53;101374.10;;;17.80;99.47
18755;BME280;35061;47.664;9.166;2023-07-30T04:01:21;101371.19;;;17.80;100.00
18755;BME280;35061;47.664;9.166;2023-07-30T04:03:49;101371.19;;;17.80;99.96
18755;BME280;35061;47.664;9.166;2023-07-30T04:06:17;101383.02;;;17.82;99.85
18755;BME280;35061;47.664;9.166;2023-07-30T04:08:45;101373.58;;;17.81;99.98
18755;BME280;35061;47.664;9.166;2023-07-30T04:11:13;101375.90;;;17.83;100.00
18755;BME280;35061;47.664;9.166;2023-07-30T04:13:42;101371.45;;;17.82;100.00
18755;BME280;35061;47.664;9.166;2023-07-30T04:16:10;101363.80;;;17.84;100.00
18755;BME280;35061;47.664;9.166;2023-07-30T04:18:38;101366.19;;;17.86;100.00
18755;BME280;35061;47.664;9.166;2023-07-30T04:21:06;101364.62;;;17.85;100.00
18755;BME280;35061;47.664;9.166;2023-07-30T04:23:34;101377.76;;;17.86;100.00
18755;BME280;35061;47.664;9.166;2023-07-30T04:26:02;101367.76;;;17.87;100.00
18755;BME280;35061;47.664;9.166;2023-07-30T04:28:30;101378.25;;;17.90;100.00
18755;BME280;35061;47.664;9.166;2023-07-30T04:30:58;101378.52;;;17.92;100.00
18755;BME280;35061;47.664;9.166;2023-07-30T04:33:26;101383.26;;;17.95;100.00
18755;BME280;35061;47.664;9.166;2023-07-30T04:35:54;101381.95;;;17.96;100.00
18755;BME280;35061;47.664;9.166;2023-07-30T04:38:22;101385.34;;;18.00;100.00
18755;BME280;35061;47.664;9.166;2023-07-30T04:40:51;101397.19;;;18.03;100.00
18755;BME280;35061;47.664;9.166;2023-07-30T04:43:19;101395.12;;;18.03;100.00
18755;BME280;35061;47.664;9.166;2023-07-30T04:45:47;101397.45;;;18.05;100.00
18755;BME280;35061;47.664;9.166;2023-07-30T04:48:15;101403.53;;;18.07;100.00
18755;BME280;35061;47.664;9.166;2023-07-30T04:50:43;101410.88;;;18.08;100.00
18755;BME280;35061;47.664;9.166;2023-07-30T04:53:11;101418.51;;;18.11;100.00
18755;BME280;35061;47.664;9.166;2023-07-30T04:55:39;101413.77;;;18.13;100.00
18755;BME280;35061;47.664;9.166;2023-07-30T04:58:07;101420.34;;;18.14;100.00
18755;BME280;35061;47.664;9.166;2023-07-30T05:00:35;101415.82;;;18.19;100.00
18755;BME280;35061;47.664;9.166;2023-07-30T05:03:03;101420.86;;;18.18;99.71
18755;BME280;35061;47.664;9.166;2023-07-30T05:05:31;101415.56;;;18.22;99.80
18755;BME280;35061;47.664;9.166;2023-07-30T05:07:59;101413.73;;;18.25;99.74
18755;BME280;35061;47.664;9.166;2023-07-30T05:10:27;101420.56;;;18.27;99.44
18755;BME280;35061;47.664;9.166;2023-07-30T05:12:55;101423.70;;;18.30;99.41
18755;BME280;35061;47.664;9.166;2023-07-30T05:15:22;101416.31;;;18.34;99.44
18755;BME280;35061;47.664;9.166;2023-07-30T05:17:50;101421.32;;;18.34;99.17
18755;BME280;35061;47.664;9.166;2023-07-30T05:20:18;101425.02;;;18.34;98.91
18755;BME280;35061;47.664;9.166;2023-07-30T05:22:46;101426.84;;;18.37;98.90
18755;BME280;35061;47.664;9.166;2023-07-30T05:25:14;101425.50;;;18.38;98.85
18755;BME280;35061;47.664;9.166;2023-07-30T05:27:42;101418.63;;;18.41;98.67
18755;BME280;35061;47.664;9.166;2023-07-30T05:30:11;101437.86;;;18.45;98.42
18755;BME280;35061;47.664;9.166;2023-07-30T05:32:39;101432.08;;;18.45;98.38
18755;BME280;35061;47.664;9.166;2023-07-30T05:35:07;101432.86;;;18.45;98.41
18755;BME280;35061;47.664;9.166;2023-07-30T05:37:35;101418.87;;;18.49;98.31
18755;BME280;35061;47.664;9.166;2023-07-30T05:40:04;101426.78;;;18.49;98.26
18755;BME280;35061;47.664;9.166;2023-07-30T05:42:33;101427.83;;;18.51;98.21
18755;BME280;35061;47.664;9.166;2023-07-30T05:45:01;101429.63;;;18.54;98.27
18755;BME280;35061;47.664;9.166;2023-07-30T05:47:28;101425.66;;;18.58;98.17
18755;BME280;35061;47.664;9.166;2023-07-30T05:49:56;101433.25;;;18.66;98.07
18755;BME280;35061;47.664;9.166;2023-07-30T05:52:24;101433.22;;;18.72;97.62
18755;BME280;35061;47.664;9.166;2023-07-30T05:54:52;101433.97;;;18.78;97.36
18755;BME280;35061;47.664;9.166;2023-07-30T05:57:20;101443.20;;;18.82;97.15
18755;BME280;35061;47.664;9.166;2023-07-30T05:59:48;101438.68;;;18.87;96.85
18755;BME280;35061;47.664;9.166;2023-07-30T06:02:16;101443.39;;;18.90;96.42
18755;BME280;35061;47.664;9.166;2023-07-30T06:04:45;101447.34;;;18.93;96.37
18755;BME280;35061;47.664;9.166;2023-07-30T06:07:13;101448.36;;;19.01;96.28
18755;BME280;35061;47.664;9.166;2023-07-30T06:09:40;101451.99;;;19.07;95.99
18755;BME280;35061;47.664;9.166;2023-07-30T06:12:08;101452.25;;;19.09;95.53
18755;BME280;35061;47.664;9.166;2023-07-30T06:14:36;101449.57;;;19.11;95.04
18755;BME280;35061;47.664;9.166;2023-07-30T06:17:05;101458.79;;;19.16;95.19
18755;BME280;35061;47.664;9.166;2023-07-30T06:19:33;101466.18;;;19.17;95.01
18755;BME280;35061;47.664;9.166;2023-07-30T06:22:01;101463.53;;;19.19;94.86
18755;BME280;35061;47.664;9.166;2023-07-30T06:24:29;101460.85;;;19.21;94.84
18755;BME280;35061;47.664;9.166;2023-07-30T06:27:01;101466.94;;;19.23;94.88
18755;BME280;35061;47.664;9.166;2023-07-30T06:29:29;101464.28;;;19.25;94.83
18755;BME280;35061;47.664;9.166;2023-07-30T06:31:57;101469.52;;;19.27;94.98
18755;BME280;35061;47.664;9.166;2023-07-30T06:34:24;101473.18;;;19.33;95.01
18755;BME280;35061;47.664;9.166;2023-07-30T06:36:52;101471.84;;;19.34;94.51
18755;BME280;35061;47.664;9.166;2023-07-30T06:39:20;101463.34;;;19.42;94.58
18755;BME280;35061;47.664;9.166;2023-07-30T06:41:49;101474.88;;;19.47;94.57
18755;BME280;35061;47.664;9.166;2023-07-30T06:44:17;101478.54;;;19.53;94.46
18755;BME280;35061;47.664;9.166;2023-07-30T06:46:45;101479.82;;;19.58;93.76
18755;BME280;35061;47.664;9.166;2023-07-30T06:49:13;101476.88;;;19.64;93.61
18755;BME280;35061;47.664;9.166;2023-07-30T06:51:41;101484.72;;;19.69;93.01
18755;BME280;35061;47.664;9.166;2023-07-30T06:54:09;101480.47;;;19.76;92.53
18755;BME280;35061;47.664;9.166;2023-07-30T06:56:37;101482.20;;;19.85;91.93
18755;BME280;35061;47.664;9.166;2023-07-30T06:59:05;101494.01;;;19.92;90.64
18755;BME280;35061;47.664;9.166;2023-07-30T07:01:33;101492.41;;;19.97;90.16
18755;BME280;35061;47.664;9.166;2023-07-30T07:04:02;101486.52;;;20.03;89.11
18755;BME280;35061;47.664;9.166;2023-07-30T07:06:30;101491.75;;;20.10;87.86
18755;BME280;35061;47.664;9.166;2023-07-30T07:08:58;101487.96;;;20.15;87.46
18755;BME280;35061;47.664;9.166;2023-07-30T07:11:26;101487.89;;;20.21;87.35
18755;BME280;35061;47.664;9.166;2023-07-30T07:13:54;101484.92;;;20.27;86.42
18755;BME280;35061;47.664;9.166;2023-07-30T07:16:22;101491.23;;;20.31;85.07
18755;BME280;35061;47.664;9.166;2023-07-30T07:18:50;101482.43;;;20.36;85.44
18755;BME280;35061;47.664;9.166;2023-07-30T07:21:18;101480.02;;;20.41;83.62
18755;BME280;35061;47.664;9.166;2023-07-30T07:23:48;101484.49;;;20.42;83.11
18755;BME280;35061;47.664;9.166;2023-07-30T07:26:16;101480.51;;;20.45;83.47
18755;BME280;35061;47.664;9.166;2023-07-30T07:28:44;101477.53;;;20.50;83.85
18755;BME280;35061;47.664;9.166;2023-07-30T07:31:12;101481.91;;;20.57;83.66
18755;BME280;35061;47.664;9.166;2023-07-30T07:33:40;101489.23;;;20.64;83.65
18755;BME280;35061;47.664;9.166;2023-07-30T07:36:08;101489.46;;;20.66;81.93
18755;BME280;35061;47.664;9.166;2023-07-30T07:38:36;101487.27;;;20.72;82.43
18755;BME280;35061;47.664;9.166;2023-07-30T07:41:04;101490.09;;;20.78;81.05
18755;BME280;35061;47.664;9.166;2023-07-30T07:43:32;101494.30;;;20.83;80.32
18755;BME280;35061;47.664;9.166;2023-07-30T07:45:59;101499.02;;;20.86;78.99
18755;BME280;35061;47.664;9.166;2023-07-30T07:48:27;101493.65;;;20.90;77.92
18755;BME280;35061;47.664;9.166;2023-07-30T07:50:55;101488.05;;;20.92;75.45
18755;BME280;35061;47.664;9.166;2023-07-30T07:53:23;101492.31;;;20.91;75.53
18755;BME280;35061;47.664;9.166;2023-07-30T07:55:51;101505.78;;;20.94;76.29
18755;BME280;35061;47.664;9.166;2023-07-30T07:58:19;101502.28;;;20.96;76.68
18755;BME280;35061;47.664;9.166;2023-07-30T08:00:47;101505.68;;;21.00;77.14
18755;BME280;35061;47.664;9.166;2023-07-30T08:03:15;101510.10;;;21.07;77.84
18755;BME280;35061;47.664;9.166;2023-07-30T08:05:43;101506.08;;;21.10;77.02
18755;BME280;35061;47.664;9.166;2023-07-30T08:08:11;101497.54;;;21.12;75.14
18755;BME280;35061;47.664;9.166;2023-07-30T08:10:40;101500.16;;;21.15;76.66
18755;BME280;35061;47.664;9.166;2023-07-30T08:13:11;101492.21;;;21.16;76.25
18755;BME280;35061;47.664;9.166;2023-07-30T08:15:39;101500.95;;;21.16;76.55
18755;BME280;35061;47.664;9.166;2023-07-30T08:18:07;101500.29;;;21.23;76.94
18755;BME280;35061;47.664;9.166;2023-07-30T08:20:36;101508.40;;;21.30;76.64
18755;BME280;35061;47.664;9.166;2023-07-30T08:23:04;101507.94;;;21.26;71.74
18755;BME280;35061;47.664;9.166;2023-07-30T08:25:32;101516.18;;;21.22;71.43
18755;BME280;35061;47.664;9.166;2023-07-30T08:28:00;101513.14;;;21.14;70.58
18755;BME280;35061;47.664;9.166;2023-07-30T08:30:28;101513.92;;;21.15;71.28
18755;BME280;35061;47.664;9.166;2023-07-30T08:32:56;101518.73;;;21.12;71.19
18755;BME280;35061;47.664;9.166;2023-07-30T08:35:24;101510.55;;;21.11;70.63
18755;BME280;35061;47.664;9.166;2023-07-30T08:37:55;101509.77;;;21.10;71.17
18755;BME280;35061;47.664;9.166;2023-07-30T08:40:23;101539.89;;;21.13;69.43
18755;BME280;35061;47.664;9.166;2023-07-30T08:42:52;101517.72;;;21.10;69.16
18755;BME280;35061;47.664;9.166;2023-07-30T08:45:20;101522.20;;;21.11;70.34
18755;BME280;35061;47.664;9.166;2023-07-30T08:47:48;101527.16;;;21.16;70.85
18755;BME280;35061;47.664;9.166;2023-07-30T08:50:16;101510.95;;;21.21;71.39
18755;BME280;35061;47.664;9.166;2023-07-30T08:52:45;101503.46;;;21.25;71.81
18755;BME280;35061;47.664;9.166;2023-07-30T08:55:15;101511.70;;;21.21;70.13
18755;BME280;35061;47.664;9.166;2023-07-30T08:57:45;101507.22;;;21.20;69.46
18755;BME280;35061;47.664;9.166;2023-07-30T09:00:15;101492.44;;;21.18;68.90
18755;BME280;35061;47.664;9.166;2023-07-30T09:02:49;101485.80;;;21.17;68.04
18755;BME280;35061;47.664;9.166;2023-07-30T09:05:20;101497.93;;;21.22;68.83
18755;BME280;35061;47.664;9.166;2023-07-30T09:07:48;101499.21;;;21.26;68.87
18755;BME280;35061;47.664;9.166;2023-07-30T09:10:16;101502.48;;;21.36;68.54
18755;BME280;35061;47.664;9.166;2023-07-30T09:12:44;101501.27;;;21.45;68.17
18755;BME280;35061;47.664;9.166;2023-07-30T09:15:14;101497.15;;;21.54;68.41
18755;BME280;35061;47.664;9.166;2023-07-30T09:17:42;101503.55;;;21.66;68.29
18755;BME280;35061;47.664;9.166;2023-07-30T09:20:11;101501.14;;;21.70;67.38
18755;BME280;35061;47.664;9.166;2023-07-30T09:22:39;101494.04;;;21.65;65.56
18755;BME280;35061;47.664;9.166;2023-07-30T09:25:08;101496.89;;;21.71;66.80
18755;BME280;35061;47.664;9.166;2023-07-30T09:27:37;101501.83;;;21.76;66.54
18755;BME280;35061;47.664;9.166;2023-07-30T09:30:05;101504.08;;;21.83;66.27
18755;BME280;35061;47.664;9.166;2023-07-30T09:32:34;101508.66;;;21.92;66.74
18755;BME280;35061;47.664;9.166;2023-07-30T09:35:06;101499.47;;;21.88;63.86
18755;BME280;35061;47.664;9.166;2023-07-30T09:37:39;101508.10;;;21.80;63.62
18755;BME280;35061;47.664;9.166;2023-07-30T09:40:10;101506.53;;;21.79;64.54
18755;BME280;35061;47.664;9.166;2023-07-30T09:42:45;101513.47;;;21.76;64.50
18755;BME280;35061;47.664;9.166;2023-07-30T09:45:24;101525.56;;;21.67;62.90
18755;BME280;35061;47.664;9.166;2023-07-30T09:47:54;101524.29;;;21.62;64.07
18755;BME280;35061;47.664;9.166;2023-07-30T09:50:24;101521.48;;;21.56;64.30
18755;BME280;35061;47.664;9.166;2023-07-30T09:52:53;101522.59;;;21.53;63.61
18755;BME280;35061;47.664;9.166;2023-07-30T09:55:22;101528.80;;;21.44;63.61
18755;BME280;35061;47.664;9.166;2023-07-30T09:57:50;101536.29;;;21.39;63.84
18755;BME280;35061;47.664;9.166;2023-07-30T10:00:18;101534.59;;;21.30;63.92
18755;BME280;35061;47.664;9.166;2023-07-30T10:02:47;101536.48;;;21.28;64.13
18755;BME280;35061;47.664;9.166;2023-07-30T10:05:18;101532.79;;;21.27;64.13
18755;BME280;35061;47.664;9.166;2023-07-30T10:07:53;101521.38;;;21.29;64.20
18755;BME280;35061;47.664;9.166;2023-07-30T10:10:24;101523.90;;;21.39;64.37
18755;BME280;35061;47.664;9.166;2023-07-30T10:12:53;101516.41;;;21.43;64.43
18755;BME280;35061;47.664;9.166;2023-07-30T10:15:23;101513.59;;;21.51;63.65
18755;BME280;35061;47.664;9.166;2023-07-30T10:17:51;101511.63;;;21.59;64.18
18755;BME280;35061;47.664;9.166;2023-07-30T10:20:24;101519.74;;;21.67;63.40
18755;BME280;35061;47.664;9.166;2023-07-30T10:22:53;101515.95;;;21.72;62.87
18755;BME280;35061;47.664;9.166;2023-07-30T10:25:29;101508.10;;;21.80;63.24
18755;BME280;35061;47.664;9.166;2023-07-30T10:27:58;101498.13;;;21.89;61.48
18755;BME280;35061;47.664;9.166;2023-07-30T10:30:31;101515.30;;;21.93;61.23
18755;BME280;35061;47.664;9.166;2023-07-30T10:33:04;101515.85;;;21.91;60.54
18755;BME280;35061;47.664;9.166;2023-07-30T10:35:46;101525.92;;;21.90;60.72
18755;BME280;35061;47.664;9.166;2023-07-30T10:38:18;101506.56;;;21.93;61.00
18755;BME280;35061;47.664;9.166;2023-07-30T10:41:07;101504.87;;;21.97;60.87
18755;BME280;35061;47.664;9.166;2023-07-30T10:43:41;101521.84;;;21.99;60.89
18755;BME280;35061;47.664;9.166;2023-07-30T10:46:12;101512.39;;;22.06;61.75
18755;BME280;35061;47.664;9.166;2023-07-30T10:48:42;101515.30;;;22.06;60.89
18755;BME280;35061;47.664;9.166;2023-07-30T10:51:12;101516.87;;;22.07;60.50
18755;BME280;35061;47.664;9.166;2023-07-30T10:53:48;101527.43;;;22.10;60.11
18755;BME280;35061;47.664;9.166;2023-07-30T10:56:22;101528.31;;;22.19;59.74
18755;BME280;35061;47.664;9.166;2023-07-30T10:58:54;101531.58;;;22.28;59.43
18755;BME280;35061;47.664;9.166;2023-07-30T11:01:24;101536.65;;;22.41;59.27
18755;BME280;35061;47.664;9.166;2023-07-30T11:03:54;101542.27;;;22.53;59.17
18755;BME280;35061;47.664;9.166;2023-07-30T11:06:26;101533.61;;;22.61;57.48
18755;BME280;35061;47.664;9.166;2023-07-30T11:08:54;101533.38;;;22.72;58.19
18755;BME280;35061;47.664;9.166;2023-07-30T11:11:22;101528.09;;;22.84;57.68
18755;BME280;35061;47.664;9.166;2023-07-30T11:13:52;101527.63;;;22.80;55.32
18755;BME280;35061;47.664;9.166;2023-07-30T11:16:20;101522.72;;;22.75;53.35
18755;BME280;35061;47.664;9.166;2023-07-30T11:18:48;101522.59;;;22.67;52.56
18755;BME280;35061;47.664;9.166;2023-07-30T11:21:18;101532.40;;;22.56;52.46
18755;BME280;35061;47.664;9.166;2023-07-30T11:23:46;101536.88;;;22.57;52.95
18755;BME280;35061;47.664;9.166;2023-07-30T11:26:16;101528.45;;;22.53;52.07
18755;BME280;35061;47.664;9.166;2023-07-30T11:28:46;101523.83;;;22.58;52.23
18755;BME280;35061;47.664;9.166;2023-07-30T11:31:16;101535.41;;;22.64;52.66
18755;BME280;35061;47.664;9.166;2023-07-30T11:33:47;101529.45;;;22.69;51.54
18755;BME280;35061;47.664;9.166;2023-07-30T11:36:18;101533.94;;;22.70;49.94
18755;BME280;35061;47.664;9.166;2023-07-30T11:38:47;101553.27;;;22.74;48.97
18755;BME280;35061;47.664;9.166;2023-07-30T11:41:16;101524.06;;;22.74;47.67
18755;BME280;35061;47.664;9.166;2023-07-30T11:43:44;101515.95;;;22.80;48.32
18755;BME280;35061;47.664;9.166;2023-07-30T11:46:14;101528.84;;;22.84;48.01
18755;BME280;35061;47.664;9.166;2023-07-30T11:48:45;101527.73;;;22.87;47.16
18755;BME280;35061;47.664;9.166;2023-07-30T11:51:21;101534.00;;;22.92;45.56
18755;BME280;35061;47.664;9.166;2023-07-30T11:54:01;101514.80;;;22.96;46.31
18755;BME280;35061;47.664;9.166;2023-07-30T11:56:33;101519.71;;;23.02;45.44
18755;BME280;35061;47.664;9.166;2023-07-30T11:59:05;101528.34;;;23.07;44.83
18755;BME280;35061;47.664;9.166;2023-07-30T12:01:35;101520.04;;;23.11;42.67
18755;BME280;35061;47.664;9.166;2023-07-30T12:04:05;101520.66;;;23.18;42.23
18755;BME280;35061;47.664;9.166;2023-07-30T12:06:41;101510.06;;;23.28;40.86
18755;BME280;35061;47.664;9.166;2023-07-30T12:09:14;101533.12;;;23.32;40.09
18755;BME280;35061;47.664;9.166;2023-07-30T12:11:46;101523.63;;;23.39;40.49
18755;BME280;35061;47.664;9.166;2023-07-30T12:14:15;101527.92;;;23.38;40.42
18755;BME280;35061;47.664;9.166;2023-07-30T12:16:43;101521.70;;;23.41;41.25
18755;BME280;35061;47.664;9.166;2023-07-30T12:19:12;101534.20;;;23.42;42.21
18755;BME280;35061;47.664;9.166;2023-07-30T12:21:39;101527.85;;;23.51;43.26
18755;BME280;35061;47.664;9.166;2023-07-30T12:24:08;101526.16;;;23.56;43.54
18755;BME280;35061;47.664;9.166;2023-07-30T12:26:36;101520.50;;;23.58;42.65
18755;BME280;35061;47.664;9.166;2023-07-30T12:29:04;101531.98;;;23.56;42.26
18755;BME280;35061;47.664;9.166;2023-07-30T12:31:32;101524.65;;;23.63;42.18
18755;BME280;35061;47.664;9.166;2023-07-30T12:34:00;101511.02;;;23.65;42.33
18755;BME280;35061;47.664;9.166;2023-07-30T12:36:28;101528.21;;;23.69;42.20
18755;BME280;35061;47.664;9.166;2023-07-30T12:38:56;101530.77;;;23.73;42.54
18755;BME280;35061;47.664;9.166;2023-07-30T12:41:24;101516.77;;;23.79;42.76
18755;BME280;35061;47.664;9.166;2023-07-30T12:43:56;101531.02;;;23.82;40.43
18755;BME280;35061;47.664;9.166;2023-07-30T12:46:27;101519.05;;;23.94;41.43
18755;BME280;35061;47.664;9.166;2023-07-30T12:48:58;101535.96;;;24.09;41.80
18755;BME280;35061;47.664;9.166;2023-07-30T12:51:32;101521.54;;;24.11;41.36
18755;BME280;35061;47.664;9.166;2023-07-30T12:54:00;101527.79;;;24.15;41.19
18755;BME280;35061;47.664;9.166;2023-07-30T12:56:28;101536.39;;;24.21;41.62
18755;BME280;35061;47.664;9.166;2023-07-30T12:58:56;101525.14;;;24.25;42.13